Overview Statistics Trail Chart Weather Telemetry Raw packets
 

This is the latest recevied weather packets stored in our database for station/object OK5TVR-5. If no packets are shown the sender has not sent any weather packets the latest 10 day(s).

<< 23 24 25 26 27 28 29 >>
Time Temp. Humidity Pressure Rain* Wind** Luminosity Snow
1788158365 16.67° C 92% 1008.5 hPa 1.78 mm - 52 W/m² -
1788157465 16.67° C 91% 1008.5 hPa 2.79 mm - 28 W/m² -
1788156565 16.11° C 91% 1008.6 hPa 3.56 mm - 14 W/m² -
1788155665 16.11° C 89% 1008.7 hPa 3.56 mm - 5 W/m² -
1788154765 16.11° C 92% 1008.5 hPa 3.3 mm - 7 W/m² -
1788153868 15.56° C 94% 1008.8 hPa 2.29 mm - 2 W/m² -
1788152965 15.56° C 94% 1009.1 hPa 0.76 mm - 1 W/m² -
1788152065 14.44° C 93% 1009 hPa 0 mm - 0 W/m² -
1788152065 14.44° C - - 0 mm - 0 W/m² -
1788151165 15.56° C 84% 1006.6 hPa 0 mm - 3 W/m² -
1788150265 15.56° C 84% 1006.8 hPa 0 mm - 1 W/m² -
1788149369 15.56° C 85% 1007 hPa 0 mm - 0 W/m² -
1788149365 15.56° C 85% 1007 hPa 0 mm - 0 W/m² -
1788149365 15.56° C 85% 1007 hPa 0 mm - 0 W/m² -
1788148465 15° C 87% 1007.1 hPa 0 mm - 0 W/m² -
1788148465 15° C - - - - - -
1788147565 15° C 87% 1007.4 hPa 0 mm - 0 W/m² -
1788146665 15.56° C 84% 1007.6 hPa 0 mm - 0 W/m² -
1788145769 15.56° C 85% 1007.6 hPa 0 mm - 0 W/m² -
1788145769 15.56° C 85% 1007.6 hPa 0 mm - 0 W/m² -
1788145768 15.56° C 85% 1007.6 hPa 0 mm - 0 W/m² -
1788145765 15.56° C 85% 1007.6 hPa 0 mm - 0 W/m² -
1788144865 15.56° C 85% 1007.6 hPa 0 mm - 0 W/m² -
1788143965 15.56° C 84% 1007.9 hPa 0 mm - 0 W/m² -
1788143069 15.56° C 84% 1007.9 hPa 0 mm - 0 W/m² -

* Rain latest hour (hover to see other rain measurements)
** Current wind speed in m/s (hover to see current wind gust speed)